Airfield :







YOU CAN JOIN US ON...

 
LOGIN :

Register | Disclaimer

   EN    FR    IT 

 









Legend :    VFR   Marginal VFR   IFR   Intensive IFR   Very Intensive IFR
Visi :
Ceiling :
>= 8 km
>= 3000ft
5 to 8 km
1000 to 3000 ft
1500m to 5 km
500 to 1000 ft
800 to 1500m
200 to 500 ft
< 800m
< 200 ft
Symbols :   Thunderstorms  Fog  Heavy snow  Heavy precipitations  Wind > 20 kt






- Airport Elevation : 241 ft
- IATA code : CEF


KCEF - Westover ARB/Metropolitan

CURRENT METAR :
  • 132156Z 00000KT 10SM SCT200 BKN250 13/07 A3001 RMK AO2A SLP169 T01270065

EXPIRED METARs :
  • 132056Z 00000KT 10SM SCT200 BKN250 17/03 A3002 RMK AO2A SLP172 T01740026 55009
  • 131956Z 21003KT 10SM FEW200 BKN250 17/01 A3003 RMK AO2A SLP175 T01740014
  • 131856Z 00000KT 10SM BKN250 17/02 A3003 RMK AO2A SLP175 T01720016

TAF TAF KCEF
Valid from the 13 at 18:00 until the 15 at 00:00 UTC


131800Z 1318/1424 32009KT 9999 FEW050 BKN200 QNH3005INS
BECMG 1320/1321 VRB06KT 9999 SCT200 QNH3001INS
BECMG 1406/1407 VRB04KT 9999 FEW010 BKN045 QNH2997INS
BECMG 1418/1419 19009KT 9999 SCT040 BKN160 QNH2991INS
BECMG 1422/1423 VRB06KT 9999 BKN055 QNH2994INS TX18/1319Z TN08/1411Z



MET'MAP, your aeronautical weather chart ! - Copyright ORBIFLY December 2007 - Disclaimer

ORBIFLY MET'MAP TEAM :

Programming & Development : Alexandra Zaïnal
Concept & Development : Baudouin d'Aumeries
Co-Development & Prog : Marc-Olivier Méhu
Technical & hardware support : Manuel Goepfert

Contact : metmap@orbifly.com




SOURCES & CREDITS :

   NOAA